Time;durP1;ratioP1;P1;durP2;ratioP2;P2;SDS_P1;SDS_P2;PMS_P1;PMS_P2;Temp;Humidity;BMP_temperature;BMP_pressure;BME280_temperature;BME280_humidity;BME280_pressure;Samples;Min_cycle;Max_cycle;Signal;HPM_P1;HPM_P2
2022/06/20 00:01:27;;;;;;;4.40;1.65;;;21.30;99.90;;;;;;5035259;28;20022;-50
2022/06/20 00:03:54;;;;;;;4.05;1.50;;;21.20;99.90;;;;;;5035010;28;20036;-47
2022/06/20 00:06:22;;;;;;;3.80;1.67;;;21.10;99.90;;;;;;5034943;28;20022;-47
2022/06/20 00:08:51;;;;;;;5.72;1.77;;;21.00;99.90;;;;;;5017504;28;20025;-48
2022/06/20 00:11:41;;;;;;;3.95;1.40;;;21.00;99.90;;;;;;5017063;28;20031;-50
2022/06/20 00:14:12;;;;;;;5.55;1.58;;;21.00;99.90;;;;;;5017087;28;20104;-49
2022/06/20 00:16:37;;;;;;;4.43;1.45;;;21.10;99.90;;;;;;5034942;28;20021;-45
2022/06/20 00:19:03;;;;;;;3.50;1.52;;;21.20;99.90;;;;;;5033876;28;20029;-45
2022/06/20 00:21:29;;;;;;;4.55;1.40;;;21.10;99.90;;;;;;5016806;28;20037;-47
2022/06/20 00:23:54;;;;;;;6.15;1.80;;;21.10;99.90;;;;;;5017309;28;20025;-50
2022/06/20 00:26:20;;;;;;;2.78;1.63;;;21.30;99.90;;;;;;5034551;28;20040;-47
2022/06/20 00:28:46;;;;;;;6.40;1.67;;;21.50;99.90;;;;;;5017332;28;20061;-44
2022/06/20 00:31:12;;;;;;;3.20;1.20;;;21.30;99.90;;;;;;5016891;28;20067;-51
2022/06/20 00:33:38;;;;;;;7.85;1.83;;;21.20;99.90;;;;;;5017034;28;20026;-46
2022/06/20 00:36:04;;;;;;;2.83;1.50;;;21.50;99.90;;;;;;5016701;28;20101;-45
2022/06/20 00:38:30;;;;;;;5.03;1.73;;;21.20;99.90;;;;;;5017850;28;20029;-44
2022/06/20 00:41:04;;;;;;;4.18;1.48;;;21.50;99.90;;;;;;5034435;28;20112;-45
2022/06/20 00:43:42;;;;;;;4.43;1.52;;;21.80;99.90;;;;;;5016550;28;20092;-45
2022/06/20 00:46:26;;;;;;;2.75;1.58;;;21.50;99.90;;;;;;5016850;28;20025;-44
2022/06/20 00:49:16;;;;;;;3.30;1.75;;;21.20;99.90;;;;;;5016718;28;20024;-44
2022/06/20 00:51:52;;;;;;;5.60;1.55;;;20.90;99.90;;;;;;5034499;28;20581;-45
2022/06/20 00:54:33;;;;;;;4.88;1.70;;;20.70;99.90;;;;;;5016274;28;20052;-45
2022/06/20 00:57:18;;;;;;;4.88;1.70;;;20.50;99.90;;;;;;5016543;28;20072;-45
2022/06/20 00:59:49;;;;;;;3.30;1.40;;;20.60;99.90;;;;;;5016344;28;20036;-44
2022/06/20 01:02:24;;;;;;;;;;;20.60;99.90;;;;;;5017415;28;20029;-44
2022/06/20 01:05:02;;;;;;;2.05;0.90;;;20.40;99.90;;;;;;5016534;28;19955;-45
2022/06/20 01:07:53;;;;;;;4.53;1.20;;;20.50;99.90;;;;;;5016156;28;20060;-45
2022/06/20 01:10:20;;;;;;;6.80;1.73;;;20.50;99.90;;;;;;5016161;28;20025;-44
2022/06/20 01:13:03;;;;;;;4.13;1.50;;;20.50;99.90;;;;;;5016007;28;20052;-45
2022/06/20 01:15:39;;;;;;;2.35;1.40;;;20.60;99.90;;;;;;5016096;28;20033;-46
2022/06/20 01:18:10;;;;;;;5.60;1.35;;;20.40;99.90;;;;;;5015977;28;20120;-46
2022/06/20 01:20:37;;;;;;;5.65;1.30;;;20.60;99.90;;;;;;5015833;28;20514;-46
2022/06/20 01:23:42;;;;;;;5.25;1.40;;;20.50;99.90;;;;;;5016139;28;20472;-47
2022/06/20 01:26:21;;;;;;;3.95;1.40;;;20.70;99.90;;;;;;5016504;28;20112;-45
2022/06/20 01:28:51;;;;;;;4.07;1.10;;;20.50;99.90;;;;;;5033632;28;20032;-47
2022/06/20 01:31:20;;;;;;;3.20;1.40;;;20.60;99.90;;;;;;5033214;28;20021;-47
2022/06/20 01:33:48;;;;;;;3.40;1.60;;;20.80;99.90;;;;;;5015547;28;20040;-52
2022/06/20 01:39:00;;;;;;;4.32;1.30;;;20.90;99.90;;;;;;5034195;28;20032;-45
2022/06/20 01:44:14;;;;;;;3.50;1.60;;;21.00;99.90;;;;;;5033926;28;20495;-47
2022/06/20 01:46:40;;;;;;;2.20;1.58;;;20.90;99.90;;;;;;5033363;28;20032;-46
2022/06/20 01:49:13;;;;;;;6.03;1.45;;;21.00;99.90;;;;;;5015560;28;20018;-45
2022/06/20 01:51:48;;;;;;;2.03;1.30;;;21.10;99.90;;;;;;5033291;28;20021;-45
2022/06/20 01:54:15;;;;;;;2.30;1.63;;;21.20;99.90;;;;;;5015476;28;20384;-46
2022/06/20 01:56:44;;;;;;;2.97;1.50;;;21.20;99.90;;;;;;5016128;28;20035;-48
2022/06/20 01:59:16;;;;;;;5.65;1.38;;;21.30;99.90;;;;;;5015413;28;20068;-48
2022/06/20 02:01:41;;;;;;;8.32;1.63;;;21.40;99.90;;;;;;5033275;28;20071;-46
2022/06/20 02:04:13;;;;;;;3.60;1.70;;;21.40;99.90;;;;;;5015388;28;20022;-45
2022/06/20 02:06:39;;;;;;;3.35;1.48;;;21.30;99.90;;;;;;5016275;28;20230;-47
2022/06/20 02:09:06;;;;;;;2.72;1.40;;;21.50;99.90;;;;;;5033482;28;20017;-49
2022/06/20 02:11:33;;;;;;;4.95;1.65;;;21.50;99.90;;;;;;5015835;28;20022;-45
2022/06/20 02:14:07;;;;;;;3.90;1.80;;;21.60;99.90;;;;;;5033177;28;20083;-45
2022/06/20 02:16:37;;;;;;;3.80;1.52;;;21.60;99.90;;;;;;5015224;28;20030;-44
2022/06/20 02:19:06;;;;;;;5.72;1.60;;;21.50;99.90;;;;;;5032990;28;20459;-44
2022/06/20 02:21:35;;;;;;;4.75;2.08;;;21.60;99.90;;;;;;5015519;28;20044;-44
2022/06/20 02:24:14;;;;;;;6.82;2.58;;;21.60;99.90;;;;;;5015349;28;20026;-47
2022/06/20 02:26:41;;;;;;;10.80;2.85;;;21.50;99.90;;;;;;5015197;28;20056;-48
2022/06/20 02:29:21;;;;;;;11.15;2.47;;;21.40;99.90;;;;;;5015086;28;20025;-49
2022/06/20 02:31:51;;;;;;;6.50;2.28;;;20.80;99.90;;;;;;5033293;28;20074;-47
2022/06/20 02:34:17;;;;;;;7.30;2.38;;;20.20;99.90;;;;;;5015203;28;20030;-47
2022/06/20 02:36:46;;;;;;;7.40;2.47;;;19.40;99.90;;;;;;5015163;28;20036;-46
2022/06/20 02:39:12;;;;;;;8.95;2.50;;;18.90;99.90;;;;;;5015335;28;20033;-45
2022/06/20 02:41:40;;;;;;;8.52;2.50;;;18.60;99.90;;;;;;5016120;28;20025;-45
2022/06/20 02:44:11;;;;;;;6.00;2.45;;;18.40;99.90;;;;;;5036655;28;20034;-45
2022/06/20 02:46:38;;;;;;;8.07;2.28;;;18.30;99.90;;;;;;5019056;28;20029;-46
2022/06/20 02:49:09;;;;;;;5.00;2.00;;;18.10;99.90;;;;;;5018687;28;20116;-44
2022/06/20 02:51:38;;;;;;;11.90;2.30;;;18.10;99.90;;;;;;5018385;28;20434;-43
2022/06/20 02:54:07;;;;;;;7.00;2.05;;;18.10;99.90;;;;;;5036363;28;20049;-44
2022/06/20 02:56:41;;;;;;;2.75;2.28;;;18.40;99.90;;;;;;5019483;28;20067;-45
2022/06/20 02:59:26;;;;;;;4.80;2.15;;;18.70;99.90;;;;;;5018754;28;20033;-48
2022/06/20 03:02:02;;;;;;;3.38;1.85;;;19.00;99.90;;;;;;5036612;28;20033;-46
2022/06/20 03:04:31;;;;;;;7.57;2.08;;;19.10;99.90;;;;;;5018725;28;20026;-48
2022/06/20 03:07:01;;;;;;;6.18;1.92;;;19.20;99.90;;;;;;5018421;28;20037;-47
2022/06/20 03:09:31;;;;;;;6.47;2.30;;;19.20;99.90;;;;;;5018972;28;20029;-44
2022/06/20 03:11:57;;;;;;;4.63;2.15;;;19.20;99.90;;;;;;5036100;28;20100;-45
2022/06/20 03:14:49;;;;;;;5.50;2.20;;;19.30;99.90;;;;;;5036178;28;20021;-45
2022/06/20 03:17:17;;;;;;;2.55;1.58;;;19.40;99.90;;;;;;5036232;28;20084;-45
2022/06/20 03:19:53;;;;;;;2.30;1.63;;;19.50;99.90;;;;;;5035793;28;20104;-45
2022/06/20 03:22:21;;;;;;;5.28;1.98;;;19.60;99.90;;;;;;5035916;28;20045;-48
2022/06/20 03:24:50;;;;;;;10.35;2.63;;;19.60;99.90;;;;;;5018369;28;20032;-44
2022/06/20 03:27:23;;;;;;;6.32;2.28;;;19.60;99.90;;;;;;5035827;28;20040;-45
2022/06/20 03:29:54;;;;;;;7.18;2.30;;;19.40;99.90;;;;;;5018533;28;20029;-46
2022/06/20 03:32:24;;;;;;;5.72;2.35;;;19.30;99.90;;;;;;5035871;28;20059;-47
2022/06/20 03:34:51;;;;;;;8.30;2.00;;;19.20;99.90;;;;;;5035734;28;20025;-48
2022/06/20 03:37:18;;;;;;;3.40;1.80;;;19.40;99.90;;;;;;5035818;28;20044;-47
2022/06/20 03:39:45;;;;;;;5.57;2.05;;;19.40;99.90;;;;;;5017885;28;20089;-48
2022/06/20 03:42:12;;;;;;;6.32;2.40;;;19.30;99.90;;;;;;5018974;28;20048;-44
2022/06/20 03:44:44;;;;;;;8.70;2.78;;;19.30;99.90;;;;;;5017928;28;20022;-49
2022/06/20 03:47:15;;;;;;;6.47;2.15;;;19.20;99.90;;;;;;5035915;28;20040;-45
2022/06/20 03:50:05;;;;;;;4.30;2.00;;;19.20;99.90;;;;;;5018211;28;20017;-46
2022/06/20 03:52:40;;;;;;;4.50;2.50;;;19.10;99.90;;;;;;5018397;28;20051;-46
2022/06/20 03:55:24;;;;;;;7.10;2.70;;;19.10;99.90;;;;;;5017876;28;20033;-49
2022/06/20 03:57:56;;;;;;;3.17;2.20;;;19.10;99.90;;;;;;5035741;28;20033;-50
2022/06/20 04:00:35;;;;;;;7.45;2.03;;;19.10;99.90;;;;;;5017796;28;20187;-47
2022/06/20 04:03:25;;;;;;;5.57;2.30;;;19.10;99.90;;;;;;5035518;28;20021;-45
2022/06/20 04:05:56;;;;;;;6.90;2.53;;;19.10;99.90;;;;;;5035420;28;20040;-44
2022/06/20 04:10:57;;;;;;;;;;;18.90;99.90;;;;;;5017872;28;20540;-44
2022/06/20 04:11:17;;;;;;;5.25;2.00;;;18.90;99.90;;;;;;5034970;28;19928;-44
2022/06/20 04:13:55;;;;;;;5.60;3.45;;;18.70;99.90;;;;;;5017989;28;20032;-45
2022/06/20 04:16:31;;;;;;;3.72;1.80;;;18.80;99.90;;;;;;5017227;28;20028;-46
2022/06/20 04:19:32;;;;;;;3.00;2.00;;;18.90;99.90;;;;;;5017761;28;20041;-44
2022/06/20 04:22:03;;;;;;;3.10;1.67;;;19.00;99.90;;;;;;5017305;28;20055;-45
2022/06/20 04:24:38;;;;;;;5.32;2.10;;;19.20;99.90;;;;;;5017038;28;20120;-44
2022/06/20 04:27:11;;;;;;;5.70;1.70;;;19.30;99.90;;;;;;5017114;28;20034;-44
2022/06/20 04:29:57;;;;;;;3.92;1.65;;;19.40;99.90;;;;;;5034643;28;20053;-48
2022/06/20 04:32:38;;;;;;;6.47;2.10;;;19.80;99.90;;;;;;5016943;28;20026;-44
2022/06/20 04:35:13;;;;;;;5.15;2.17;;;20.10;99.90;;;;;;5016958;28;20029;-45
2022/06/20 04:37:57;;;;;;;4.72;2.22;;;20.30;99.90;;;;;;5016823;28;20116;-45
2022/06/20 04:40:39;;;;;;;5.50;2.28;;;20.20;99.90;;;;;;5034734;28;20026;-45
2022/06/20 04:43:09;;;;;;;;;;;20.10;99.90;;;;;;5035488;28;20040;-45
2022/06/20 04:45:55;;;;;;;7.93;2.42;;;20.00;99.90;;;;;;5017002;28;19908;-44
2022/06/20 04:48:23;;;;;;;3.65;2.00;;;20.00;99.90;;;;;;5034528;28;20025;-44
2022/06/20 04:50:51;;;;;;;6.15;3.00;;;20.00;99.90;;;;;;5016736;28;20106;-44
2022/06/20 04:53:25;;;;;;;9.43;3.22;;;19.90;99.90;;;;;;5017279;28;20049;-45
2022/06/20 04:55:59;;;;;;;8.85;2.72;;;20.00;99.90;;;;;;5018085;28;20037;-46
2022/06/20 04:58:35;;;;;;;6.15;2.28;;;19.90;99.90;;;;;;5035379;28;20030;-46
2022/06/20 05:01:03;;;;;;;12.77;3.47;;;19.80;99.90;;;;;;5017401;28;20033;-45
2022/06/20 05:03:44;;;;;;;6.30;2.50;;;19.50;99.90;;;;;;5034951;28;20026;-45
2022/06/20 05:06:21;;;;;;;6.78;2.60;;;19.30;99.90;;;;;;5034027;28;20033;-47
2022/06/20 05:08:50;;;;;;;8.13;3.53;;;19.30;99.90;;;;;;5016876;28;20029;-44
2022/06/20 05:11:30;;;;;;;8.93;3.15;;;19.30;99.90;;;;;;5017272;28;20025;-45
2022/06/20 05:14:09;;;;;;;3.72;2.72;;;18.90;99.90;;;;;;5018018;28;20021;-45
2022/06/20 05:16:42;;;;;;;5.28;2.38;;;18.70;99.90;;;;;;5034680;28;20095;-44
2022/06/20 05:19:22;;;;;;;8.52;3.20;;;18.80;99.90;;;;;;5016915;28;20021;-45
2022/06/20 05:21:53;;;;;;;5.97;3.28;;;18.90;99.90;;;;;;5017068;28;20037;-46
2022/06/20 05:24:23;;;;;;;;;;;19.00;99.90;;;;;;5017906;28;20026;-44
2022/06/20 05:26:52;;;;;;;6.70;3.17;;;19.10;99.90;;;;;;5017435;28;19909;-45
2022/06/20 05:29:31;;;;;;;5.47;2.60;;;19.20;99.90;;;;;;5016312;28;20551;-44
2022/06/20 05:32:02;;;;;;;4.72;2.70;;;19.20;99.90;;;;;;5016957;28;20021;-49
2022/06/20 05:34:37;;;;;;;6.15;2.92;;;19.30;99.90;;;;;;5034140;28;20076;-45
2022/06/20 05:37:05;;;;;;;8.50;2.40;;;19.10;99.90;;;;;;5034030;28;20383;-46
2022/06/20 05:39:38;;;;;;;5.22;2.30;;;19.30;99.90;;;;;;5015997;28;20053;-45
2022/06/20 05:42:04;;;;;;;7.85;2.75;;;19.40;99.90;;;;;;5016033;28;20022;-47
2022/06/20 05:44:30;;;;;;;6.25;2.55;;;19.50;99.90;;;;;;5016200;28;20029;-46
2022/06/20 05:47:11;;;;;;;7.88;2.80;;;19.60;99.90;;;;;;5015917;28;20075;-46
2022/06/20 05:49:45;;;;;;;4.10;2.70;;;19.60;99.90;;;;;;5033649;28;20496;-45
2022/06/20 05:52:17;;;;;;;6.63;2.67;;;19.70;99.90;;;;;;5033866;28;20030;-45
2022/06/20 05:54:57;;;;;;;8.98;2.60;;;19.60;99.90;;;;;;5015640;28;20057;-45
2022/06/20 05:57:26;;;;;;;10.40;3.63;;;19.60;99.90;;;;;;5033634;28;20109;-45
2022/06/20 06:00:01;;;;;;;4.97;2.70;;;19.60;99.90;;;;;;5016274;28;20025;-49
2022/06/20 06:02:34;;;;;;;9.57;3.08;;;19.70;99.90;;;;;;5033975;28;20084;-47
2022/06/20 06:05:03;;;;;;;4.07;2.40;;;19.70;99.90;;;;;;5016310;28;20034;-49
2022/06/20 06:07:40;;;;;;;4.38;2.03;;;19.80;99.90;;;;;;5015711;28;20047;-49
2022/06/20 06:10:31;;;;;;;8.25;2.90;;;20.00;99.90;;;;;;5033809;28;20025;-47
2022/06/20 06:13:17;;;;;;;;;;;20.10;99.90;;;;;;5017313;28;20026;-46
2022/06/20 06:19:02;;;;;;;5.80;2.78;;;20.30;99.90;;;;;;5037955;28;20024;-48
2022/06/20 06:21:28;;;;;;;6.57;2.83;;;20.10;99.90;;;;;;5038553;28;20033;-48
2022/06/20 06:23:54;;;;;;;10.27;3.40;;;20.00;99.90;;;;;;5019558;28;20026;-45
2022/06/20 06:26:20;;;;;;;8.52;2.90;;;19.80;99.90;;;;;;5019483;28;20039;-45
2022/06/20 06:28:48;;;;;;;8.55;3.53;;;19.90;99.90;;;;;;5037067;28;20105;-45
2022/06/20 06:31:28;;;;;;;5.93;3.20;;;20.00;99.90;;;;;;5037124;28;20021;-47
2022/06/20 06:34:26;;;;;;;9.15;3.22;;;20.10;99.90;;;;;;5037078;28;20109;-45
2022/06/20 06:36:57;;;;;;;13.45;3.08;;;20.20;99.90;;;;;;5024451;28;20096;-47
2022/06/20 06:39:33;;;;;;;6.45;2.75;;;20.30;99.90;;;;;;5037087;28;20017;-47
2022/06/20 06:42:03;;;;;;;8.48;3.38;;;20.40;99.90;;;;;;5019833;28;20026;-48
2022/06/20 06:44:46;;;;;;;7.55;3.47;;;20.50;99.90;;;;;;5018985;28;20025;-51
2022/06/20 06:47:21;;;;;;;5.13;2.42;;;20.40;99.90;;;;;;5018880;28;20109;-49
2022/06/20 06:49:53;;;;;;;8.25;3.53;;;20.30;99.90;;;;;;5036498;28;20101;-49
2022/06/20 06:52:27;;;;;;;5.55;3.05;;;20.40;99.90;;;;;;5036828;28;20380;-48
2022/06/20 06:55:17;;;;;;;10.45;3.58;;;20.20;99.90;;;;;;5036489;28;20029;-47
2022/06/20 06:57:51;;;;;;;5.93;2.70;;;20.00;99.90;;;;;;5036730;28;20025;-50
2022/06/20 07:00:25;;;;;;;7.53;3.42;;;19.90;99.90;;;;;;5036357;28;20033;-49
2022/06/20 07:03:16;;;;;;;8.90;4.00;;;19.50;99.90;;;;;;5036293;28;20104;-50
2022/06/20 07:05:48;;;;;;;8.05;3.63;;;18.90;99.90;;;;;;5036469;28;20029;-45
2022/06/20 07:08:28;;;;;;;10.85;4.32;;;18.50;99.90;;;;;;5019373;28;20021;-45
2022/06/20 07:11:05;;;;;;;8.32;5.07;;;18.20;99.90;;;;;;5018602;28;20021;-45
2022/06/20 07:13:43;;;;;;;10.90;4.18;;;17.70;99.90;;;;;;5036212;28;20026;-46
2022/06/20 07:16:35;;;;;;;19.17;4.65;;;17.70;99.90;;;;;;5018390;28;20025;-46
2022/06/20 07:19:01;;;;;;;;;;;17.60;99.90;;;;;;5019633;28;20442;-46
2022/06/20 07:21:29;;;;;;;8.57;4.35;;;17.40;99.90;;;;;;5036049;28;19967;-49
2022/06/20 07:24:08;;;;;;;13.02;4.25;;;17.40;99.90;;;;;;5018088;28;20029;-47
2022/06/20 07:26:45;;;;;;;5.93;3.63;;;17.30;99.90;;;;;;5036217;28;20479;-48
2022/06/20 07:29:16;;;;;;;9.60;4.97;;;17.40;99.90;;;;;;5035444;28;20022;-50
2022/06/20 07:31:50;;;;;;;7.15;4.55;;;17.40;99.90;;;;;;5036143;28;20025;-46
2022/06/20 07:34:28;;;;;;;11.23;4.85;;;17.30;99.90;;;;;;5018037;28;20026;-49
2022/06/20 07:37:18;;;;;;;7.15;3.83;;;17.30;99.90;;;;;;5018018;28;20033;-48
2022/06/20 07:39:51;;;;;;;9.30;4.03;;;17.30;99.90;;;;;;5035599;28;20099;-49
2022/06/20 07:42:29;;;;;;;7.70;3.97;;;17.30;99.90;;;;;;5035635;28;20100;-51
2022/06/20 07:45:00;;;;;;;10.82;4.40;;;17.00;99.90;;;;;;5035577;28;20032;-48
2022/06/20 07:47:52;;;;;;;5.45;3.55;;;17.20;99.90;;;;;;5035468;28;20075;-52
2022/06/20 07:50:21;;;;;;;;;;;17.20;99.90;;;;;;5035823;28;20506;-46
2022/06/20 07:53:04;;;;;;;7.15;3.70;;;17.40;99.90;;;;;;5017959;28;19905;-46
2022/06/20 07:55:31;;;;;;;9.27;3.42;;;17.60;99.90;;;;;;5035468;28;20183;-48
2022/06/20 07:58:22;;;;;;;6.75;3.15;;;17.90;99.90;;;;;;5017667;28;20060;-52
2022/06/20 08:00:51;;;;;;;5.95;3.65;;;18.20;99.90;;;;;;5017511;28;20043;-50
2022/06/20 08:03:38;;;;;;;7.32;3.60;;;18.50;99.90;;;;;;5017849;28;20025;-49
2022/06/20 08:06:22;;;;;;;6.15;3.22;;;18.50;99.90;;;;;;5017449;28;20017;-48
2022/06/20 08:08:55;;;;;;;6.72;3.20;;;18.60;99.90;;;;;;5034612;28;20025;-47
2022/06/20 08:11:42;;;;;;;5.78;3.72;;;18.70;99.90;;;;;;5016880;28;20071;-51
2022/06/20 08:14:23;;;;;;;8.23;3.05;;;18.70;99.90;;;;;;5016594;28;20022;-51
2022/06/20 08:16:51;;;;;;;;;;;19.00;99.90;;;;;;5017227;28;20033;-53
2022/06/20 08:19:17;;;;;;;5.40;3.45;;;19.10;99.90;;;;;;5034295;28;19912;-56
2022/06/20 08:21:46;;;;;;;9.07;4.07;;;19.20;99.90;;;;;;5034781;28;20042;-49
2022/06/20 08:24:19;;;;;;;5.68;3.50;;;19.10;99.90;;;;;;5016927;28;20116;-56
2022/06/20 08:26:55;;;;;;;5.75;3.58;;;19.10;99.90;;;;;;5034727;28;20388;-54
2022/06/20 08:29:27;;;;;;;5.68;3.58;;;19.10;99.90;;;;;;5017387;28;20025;-54
2022/06/20 08:32:03;;;;;;;7.80;3.78;;;18.90;99.90;;;;;;5016970;28;20060;-53
2022/06/20 08:34:39;;;;;;;6.68;4.25;;;18.80;99.90;;;;;;5016797;28;20079;-52
2022/06/20 08:37:16;;;;;;;8.82;3.95;;;18.70;99.90;;;;;;5016971;28;20116;-53
2022/06/20 08:40:15;;;;;;;4.97;3.63;;;18.70;99.90;;;;;;5017140;28;20029;-53
2022/06/20 08:43:21;;;;;;;7.93;3.90;;;18.70;99.90;;;;;;5034731;28;20033;-55
2022/06/20 08:46:13;;;;;;;6.15;3.95;;;18.60;99.90;;;;;;5017066;28;20039;-48
2022/06/20 08:48:57;;;;;;;;;;;18.50;99.90;;;;;;4987340;28;20049;-54
2022/06/20 08:52:07;;;;;;;6.03;3.85;;;18.50;99.90;;;;;;5017257;28;19912;-53
2022/06/20 08:55:11;;;;;;;4.65;3.40;;;18.40;99.90;;;;;;5015896;28;20088;-48
2022/06/20 08:58:01;;;;;;;6.50;2.85;;;18.30;99.90;;;;;;5016530;28;20029;-50
2022/06/20 09:00:33;;;;;;;11.32;3.92;;;18.50;99.90;;;;;;5016717;28;20018;-56
2022/06/20 09:03:22;;;;;;;6.70;2.67;;;18.70;99.90;;;;;;5034577;28;20017;-48
2022/06/20 09:06:25;;;;;;;5.32;3.17;;;19.00;99.90;;;;;;5034055;28;20049;-47
2022/06/20 09:09:26;;;;;;;4.10;3.03;;;19.10;99.90;;;;;;5016282;28;20021;-48
2022/06/20 09:12:13;;;;;;;2.83;1.73;;;19.20;99.90;;;;;;5033922;28;20025;-48
2022/06/20 09:15:02;;;;;;;3.05;2.08;;;19.30;99.90;;;;;;5033844;28;20055;-50
2022/06/20 09:17:30;;;;;;;2.80;1.73;;;19.40;99.90;;;;;;5016217;28;20116;-49
2022/06/20 09:20:04;;;;;;;6.93;1.95;;;19.50;99.90;;;;;;5016852;28;20048;-53
2022/06/20 09:23:07;;;;;;;1.45;1.20;;;19.40;99.90;;;;;;5033665;28;20041;-51
2022/06/20 09:25:42;;;;;;;2.10;1.05;;;19.40;99.90;;;;;;5034076;28;20025;-48
2022/06/20 09:28:38;;;;;;;0.77;0.77;;;19.50;99.90;;;;;;5033942;28;20026;-48
2022/06/20 09:31:30;;;;;;;1.77;1.15;;;19.70;99.90;;;;;;5016072;28;20476;-48
2022/06/20 09:34:06;;;;;;;;;;;19.40;99.90;;;;;;5034109;28;20018;-50
2022/06/20 09:37:09;;;;;;;0.65;0.40;;;19.10;99.90;;;;;;5033856;28;19905;-47
2022/06/20 09:39:46;;;;;;;0.30;0.30;;;18.70;99.90;;;;;;5033657;28;20064;-52
2022/06/20 09:42:37;;;;;;;0.40;0.40;;;18.40;99.90;;;;;;5016142;28;20037;-53
2022/06/20 09:45:21;;;;;;;1.63;0.50;;;17.90;99.90;;;;;;5033455;28;20021;-48
2022/06/20 09:48:00;;;;;;;1.75;0.40;;;17.90;99.90;;;;;;5033350;28;20515;-50
2022/06/20 09:50:40;;;;;;;0.95;0.32;;;17.50;99.90;;;;;;5015446;28;20024;-53
2022/06/20 09:53:27;;;;;;;0.95;0.40;;;17.70;99.90;;;;;;5015671;28;20017;-53
2022/06/20 09:56:02;;;;;;;0.68;0.30;;;17.50;99.90;;;;;;5015727;28;20026;-53
2022/06/20 09:59:06;;;;;;;2.45;0.60;;;17.60;99.90;;;;;;5015220;28;20018;-51
2022/06/20 10:01:46;;;;;;;0.35;0.30;;;17.30;99.90;;;;;;5033452;28;20024;-50
2022/06/20 10:04:20;;;;;;;0.30;0.30;;;17.60;99.90;;;;;;5016420;28;20044;-50
2022/06/20 10:07:05;;;;;;;0.57;0.45;;;17.60;99.90;;;;;;5015692;28;20102;-52
2022/06/20 10:09:45;;;;;;;1.60;0.30;;;17.70;99.90;;;;;;5015431;28;20025;-51
2022/06/20 10:12:23;;;;;;;0.25;0.25;;;17.60;99.90;;;;;;5015434;28;20025;-49
2022/06/20 10:15:15;;;;;;;1.00;0.50;;;17.80;99.90;;;;;;5033178;28;20017;-51
2022/06/20 10:17:53;;;;;;;1.58;0.40;;;18.00;99.90;;;;;;5033183;28;20030;-55
2022/06/20 10:20:42;;;;;;;0.65;0.40;;;17.80;99.90;;;;;;5015391;28;20484;-53
2022/06/20 10:23:46;;;;;;;0.80;0.50;;;17.90;99.90;;;;;;5015883;28;20030;-54
2022/06/20 10:26:39;;;;;;;0.52;0.50;;;17.90;99.90;;;;;;4983038;28;20042;-51
2022/06/20 10:29:28;;;;;;;1.88;0.40;;;17.90;99.90;;;;;;5033095;28;20021;-50
2022/06/20 10:32:00;;;;;;;0.77;0.50;;;17.80;99.90;;;;;;5015675;28;20030;-51
2022/06/20 10:35:16;;;;;;;0.52;0.30;;;17.70;99.90;;;;;;5032987;28;20022;-56
2022/06/20 10:38:12;;;;;;;1.40;0.70;;;18.10;99.90;;;;;;5032910;28;20033;-55
2022/06/20 10:41:06;;;;;;;1.75;0.60;;;18.20;99.90;;;;;;5033138;28;20357;-53
2022/06/20 10:43:43;;;;;;;1.42;0.45;;;17.70;99.90;;;;;;5033202;28;20488;-50
2022/06/20 10:46:17;;;;;;;0.95;0.70;;;17.90;99.90;;;;;;5033040;28;20484;-53
2022/06/20 10:49:08;;;;;;;0.50;0.40;;;18.20;99.90;;;;;;5015204;28;20022;-55
2022/06/20 10:51:51;;;;;;;0.45;0.30;;;18.30;99.90;;;;;;5032731;28;20072;-53
2022/06/20 10:54:58;;;;;;;0.43;0.32;;;18.50;99.90;;;;;;5032875;28;20044;-54
2022/06/20 10:57:37;;;;;;;0.57;0.50;;;18.70;99.90;;;;;;5015947;28;20028;-50
2022/06/20 11:00:35;;;;;;;0.82;0.25;;;18.90;99.90;;;;;;5015122;28;20083;-53
2022/06/20 11:03:03;;;;;;;0.93;0.30;;;19.00;99.90;;;;;;5022318;28;20462;-50
2022/06/20 11:05:48;;;;;;;1.23;0.30;;;19.00;99.90;;;;;;5018538;28;20372;-49
2022/06/20 11:08:42;;;;;;;0.47;0.47;;;18.90;99.90;;;;;;5019357;28;20083;-53
2022/06/20 11:11:19;;;;;;;2.15;0.40;;;18.90;99.90;;;;;;5018436;28;20018;-53
2022/06/20 11:13:56;;;;;;;2.25;0.40;;;19.00;99.90;;;;;;5018521;28;20052;-51
2022/06/20 11:16:40;;;;;;;1.00;0.50;;;19.00;99.90;;;;;;5036042;28;20440;-51
2022/06/20 11:19:06;;;;;;;0.40;0.40;;;18.90;99.90;;;;;;5036220;28;20033;-46
2022/06/20 11:22:15;;;;;;;2.60;0.60;;;18.80;99.90;;;;;;5018333;28;20037;-46
2022/06/20 11:24:51;;;;;;;0.77;0.40;;;18.90;99.90;;;;;;5018370;28;20114;-51
2022/06/20 11:27:55;;;;;;;1.17;0.80;;;18.90;99.90;;;;;;5018129;28;20033;-48
2022/06/20 11:30:29;;;;;;;0.88;0.50;;;18.90;99.90;;;;;;5018068;28;20116;-46
2022/06/20 11:33:01;;;;;;;0.63;0.55;;;18.90;99.90;;;;;;5035918;28;20026;-46
2022/06/20 11:35:48;;;;;;;2.13;0.43;;;18.90;99.90;;;;;;5036138;28;20017;-49
2022/06/20 11:38:38;;;;;;;1.48;0.32;;;19.00;99.90;;;;;;5018106;28;20100;-47
2022/06/20 11:41:10;;;;;;;2.45;0.80;;;18.90;99.90;;;;;;5035619;28;20476;-46
2022/06/20 11:44:06;;;;;;;0.68;0.47;;;18.80;99.90;;;;;;5035681;28;20029;-47
2022/06/20 11:47:09;;;;;;;0.82;0.60;;;18.90;99.90;;;;;;5018108;28;20067;-50
2022/06/20 11:49:57;;;;;;;5.60;0.60;;;19.00;99.90;;;;;;5017747;28;20049;-48
2022/06/20 11:52:46;;;;;;;6.22;0.75;;;19.00;99.90;;;;;;5035494;28;20504;-47
2022/06/20 11:55:16;;;;;;;0.65;0.50;;;19.00;99.90;;;;;;4987771;28;20040;-49
2022/06/20 11:58:08;;;;;;;3.30;0.50;;;19.10;99.90;;;;;;5035697;28;20110;-48
2022/06/20 12:00:33;;;;;;;;;;;19.00;99.90;;;;;;4995632;28;20029;-48
2022/06/20 12:03:15;;;;;;;1.20;0.70;;;19.00;99.90;;;;;;5017523;28;19905;-48
2022/06/20 12:05:56;;;;;;;1.20;0.60;;;19.00;99.90;;;;;;5035267;28;20128;-47
2022/06/20 12:08:28;;;;;;;1.50;0.65;;;19.00;99.90;;;;;;5017366;28;20495;-50
2022/06/20 12:10:58;;;;;;;;;;;19.10;99.90;;;;;;5035746;28;20404;-51
2022/06/20 12:13:23;;;;;;;1.20;0.60;;;19.10;99.90;;;;;;5018025;28;19955;-47
2022/06/20 12:16:26;;;;;;;1.13;0.60;;;19.10;99.90;;;;;;5016769;28;20049;-53
2022/06/20 12:25:12;;;;;;;1.13;0.77;;;19.10;99.90;;;;;;5035542;28;20044;-47
2022/06/20 12:27:39;;;;;;;0.40;0.33;;;19.20;99.90;;;;;;5017033;28;20078;-49
2022/06/20 12:30:05;;;;;;;0.73;0.50;;;19.20;99.90;;;;;;5016953;28;20103;-48
2022/06/20 12:32:34;;;;;;;0.95;0.80;;;19.20;99.90;;;;;;5017011;28;20032;-47
2022/06/20 12:35:11;;;;;;;3.35;0.90;;;19.20;99.90;;;;;;5016972;28;20507;-50
2022/06/20 12:38:15;;;;;;;0.80;0.80;;;19.10;99.90;;;;;;5017694;28;20021;-51
2022/06/20 12:40:59;;;;;;;1.50;0.70;;;19.10;99.90;;;;;;5017584;28;20091;-55
2022/06/20 12:43:38;;;;;;;0.82;0.57;;;19.10;99.90;;;;;;5016757;28;20108;-47
2022/06/20 12:46:22;;;;;;;1.13;0.70;;;19.10;99.90;;;;;;5034483;28;20032;-50
2022/06/20 12:49:06;;;;;;;1.08;0.70;;;19.10;99.90;;;;;;5034342;28;20373;-50
2022/06/20 12:51:54;;;;;;;2.55;0.88;;;19.10;99.90;;;;;;5016817;28;20113;-50
2022/06/20 12:54:41;;;;;;;2.78;0.73;;;19.20;99.90;;;;;;5016657;28;20033;-54
2022/06/20 12:57:51;;;;;;;1.55;0.80;;;19.40;99.90;;;;;;5017449;28;20025;-55
2022/06/20 13:00:31;;;;;;;5.57;0.90;;;19.50;99.90;;;;;;4957229;28;20067;-48
2022/06/20 13:03:02;;;;;;;0.95;0.75;;;19.50;99.90;;;;;;4957523;28;20126;-54
2022/06/20 13:05:53;;;;;;;1.25;0.70;;;19.50;99.90;;;;;;5012263;28;20064;-49
2022/06/20 13:08:25;;;;;;;1.63;0.52;;;19.40;99.90;;;;;;5034192;28;20088;-55
2022/06/20 13:11:09;;;;;;;1.45;0.77;;;19.50;99.90;;;;;;5016630;28;20022;-50
2022/06/20 13:13:57;;;;;;;1.27;0.88;;;19.60;99.90;;;;;;5033996;28;20469;-54
2022/06/20 13:16:32;;;;;;;1.15;0.90;;;19.50;99.90;;;;;;5005724;28;20509;-52
2022/06/20 13:19:10;;;;;;;0.80;0.80;;;19.50;99.90;;;;;;5033885;28;20029;-49
2022/06/20 13:21:49;;;;;;;2.30;0.85;;;19.50;99.90;;;;;;5033662;28;20068;-51
2022/06/20 13:24:52;;;;;;;1.13;1.00;;;19.70;99.90;;;;;;5016509;28;20028;-47
2022/06/20 13:27:42;;;;;;;4.28;0.90;;;19.80;99.90;;;;;;5016402;28;20029;-52
2022/06/20 13:30:27;;;;;;;2.58;1.17;;;20.00;99.90;;;;;;5033854;28;20017;-55
2022/06/20 13:33:09;;;;;;;2.60;0.70;;;20.00;99.90;;;;;;5033715;28;20014;-49
2022/06/20 13:35:53;;;;;;;1.63;1.00;;;19.90;99.90;;;;;;5033588;28;20029;-55
2022/06/20 13:38:44;;;;;;;0.88;0.57;;;19.90;99.90;;;;;;5015889;28;20025;-55
2022/06/20 13:41:21;;;;;;;2.25;0.70;;;20.00;99.90;;;;;;5016428;28;20357;-52
2022/06/20 13:44:12;;;;;;;1.67;0.95;;;19.90;99.90;;;;;;5033765;28;20030;-52
2022/06/20 13:46:45;;;;;;;1.10;0.88;;;19.80;99.90;;;;;;5015781;28;20029;-56
2022/06/20 13:49:39;;;;;;;3.13;0.98;;;19.80;99.90;;;;;;5016367;28;20048;-49
2022/06/20 13:52:22;;;;;;;1.52;0.80;;;19.80;99.90;;;;;;5016373;28;20033;-53
2022/06/20 13:55:15;;;;;;;1.77;0.80;;;19.70;99.90;;;;;;5033332;28;20018;-54
2022/06/20 13:57:49;;;;;;;2.15;0.77;;;19.50;99.90;;;;;;5015720;28;20075;-52
2022/06/20 14:00:28;;;;;;;5.18;1.45;;;19.50;99.90;;;;;;5033319;28;20075;-52
2022/06/20 14:03:12;;;;;;;1.77;0.90;;;19.40;99.90;;;;;;5015832;28;20021;-47